sensor_id;sensor_type;location;lat;lon;timestamp;pressure;altitude;pressure_sealevel;temperature;humidity
22605;BME280;11469;49.024;8.246;2024-02-28T00:01:37;100525.16;;;6.66;100.00
22605;BME280;11469;49.024;8.246;2024-02-28T00:04:03;100517.28;;;6.68;100.00
22605;BME280;11469;49.024;8.246;2024-02-28T00:06:28;100522.66;;;6.73;100.00
22605;BME280;11469;49.024;8.246;2024-02-28T00:08:54;100510.56;;;6.69;100.00
22605;BME280;11469;49.024;8.246;2024-02-28T00:11:20;100519.72;;;6.70;100.00
22605;BME280;11469;49.024;8.246;2024-02-28T00:13:46;100515.47;;;6.63;100.00
22605;BME280;11469;49.024;8.246;2024-02-28T00:16:11;100514.22;;;6.61;100.00
22605;BME280;11469;49.024;8.246;2024-02-28T00:18:37;100516.19;;;6.60;100.00
22605;BME280;11469;49.024;8.246;2024-02-28T00:21:02;100522.56;;;6.61;100.00
22605;BME280;11469;49.024;8.246;2024-02-28T00:23:29;100526.84;;;6.58;100.00
22605;BME280;11469;49.024;8.246;2024-02-28T00:25:54;100524.88;;;6.59;100.00
22605;BME280;11469;49.024;8.246;2024-02-28T00:28:20;100529.28;;;6.60;100.00
22605;BME280;11469;49.024;8.246;2024-02-28T00:30:46;100524.06;;;6.58;100.00
22605;BME280;11469;49.024;8.246;2024-02-28T00:33:11;100531.25;;;6.59;100.00
22605;BME280;11469;49.024;8.246;2024-02-28T00:35:37;100544.03;;;6.60;100.00
22605;BME280;11469;49.024;8.246;2024-02-28T00:38:02;100540.75;;;6.58;100.00
22605;BME280;11469;49.024;8.246;2024-02-28T00:40:28;100538.78;;;6.59;100.00
22605;BME280;11469;49.024;8.246;2024-02-28T00:42:54;100531.25;;;6.59;100.00
22605;BME280;11469;49.024;8.246;2024-02-28T00:45:20;100537.66;;;6.60;100.00
22605;BME280;11469;49.024;8.246;2024-02-28T00:47:45;100541.56;;;6.59;100.00
22605;BME280;11469;49.024;8.246;2024-02-28T00:50:11;100536.50;;;6.52;100.00
22605;BME280;11469;49.024;8.246;2024-02-28T00:52:36;100541.41;;;6.55;100.00
22605;BME280;11469;49.024;8.246;2024-02-28T00:55:02;100541.59;;;6.50;100.00
22605;BME280;11469;49.024;8.246;2024-02-28T00:57:30;100541.44;;;6.47;100.00
22605;BME280;11469;49.024;8.246;2024-02-28T00:59:55;100546.03;;;6.43;100.00
22605;BME280;11469;49.024;8.246;2024-02-28T01:02:21;100538.34;;;6.31;100.00
22605;BME280;11469;49.024;8.246;2024-02-28T01:04:47;100545.06;;;6.30;100.00
22605;BME280;11469;49.024;8.246;2024-02-28T01:07:12;100538.84;;;6.24;100.00
22605;BME280;11469;49.024;8.246;2024-02-28T01:09:37;100539.16;;;6.23;100.00
22605;BME280;11469;49.024;8.246;2024-02-28T01:12:03;100535.72;;;6.17;100.00
22605;BME280;11469;49.024;8.246;2024-02-28T01:14:29;100542.78;;;6.23;100.00
22605;BME280;11469;49.024;8.246;2024-02-28T01:16:54;100543.78;;;6.10;100.00
22605;BME280;11469;49.024;8.246;2024-02-28T01:19:20;100550.47;;;6.18;100.00
22605;BME280;11469;49.024;8.246;2024-02-28T01:21:45;100544.91;;;6.18;100.00
22605;BME280;11469;49.024;8.246;2024-02-28T01:24:11;100544.09;;;6.17;100.00
22605;BME280;11469;49.024;8.246;2024-02-28T01:26:36;100547.22;;;6.07;100.00
22605;BME280;11469;49.024;8.246;2024-02-28T01:29:01;100552.63;;;6.12;100.00
22605;BME280;11469;49.024;8.246;2024-02-28T01:31:28;100553.28;;;6.09;100.00
22605;BME280;11469;49.024;8.246;2024-02-28T01:33:53;100556.22;;;5.95;100.00
22605;BME280;11469;49.024;8.246;2024-02-28T01:36:19;100553.41;;;5.87;100.00
22605;BME280;11469;49.024;8.246;2024-02-28T01:38:44;100556.88;;;5.92;100.00
22605;BME280;11469;49.024;8.246;2024-02-28T01:41:10;100563.72;;;5.86;100.00
22605;BME280;11469;49.024;8.246;2024-02-28T01:43:35;100560.16;;;5.94;100.00
22605;BME280;11469;49.024;8.246;2024-02-28T01:46:03;100565.19;;;5.84;100.00
22605;BME280;11469;49.024;8.246;2024-02-28T01:48:29;100562.91;;;5.86;100.00
22605;BME280;11469;49.024;8.246;2024-02-28T01:50:55;100560.91;;;5.78;100.00
22605;BME280;11469;49.024;8.246;2024-02-28T01:53:21;100567.47;;;5.82;100.00
22605;BME280;11469;49.024;8.246;2024-02-28T01:55:47;100571.06;;;5.74;100.00
22605;BME280;11469;49.024;8.246;2024-02-28T01:58:12;100569.09;;;5.65;100.00
22605;BME280;11469;49.024;8.246;2024-02-28T02:00:38;100559.78;;;5.61;100.00
22605;BME280;11469;49.024;8.246;2024-02-28T02:03:07;100561.88;;;5.56;100.00
22605;BME280;11469;49.024;8.246;2024-02-28T02:05:33;100566.28;;;5.48;100.00
22605;BME280;11469;49.024;8.246;2024-02-28T02:07:58;100565.78;;;5.46;100.00
22605;BME280;11469;49.024;8.246;2024-02-28T02:10:25;100573.00;;;5.47;100.00
22605;BME280;11469;49.024;8.246;2024-02-28T02:12:51;100577.91;;;5.50;100.00
22605;BME280;11469;49.024;8.246;2024-02-28T02:15:16;100569.81;;;5.31;100.00
22605;BME280;11469;49.024;8.246;2024-02-28T02:17:41;100581.09;;;5.26;100.00
22605;BME280;11469;49.024;8.246;2024-02-28T02:20:09;100585.16;;;5.20;100.00
22605;BME280;11469;49.024;8.246;2024-02-28T02:22:39;100588.97;;;5.33;100.00
22605;BME280;11469;49.024;8.246;2024-02-28T02:25:05;100588.44;;;5.14;100.00
22605;BME280;11469;49.024;8.246;2024-02-28T02:27:30;100584.47;;;5.06;100.00
22605;BME280;11469;49.024;8.246;2024-02-28T02:29:56;100589.69;;;5.08;100.00
22605;BME280;11469;49.024;8.246;2024-02-28T02:32:21;100589.84;;;5.03;100.00
22605;BME280;11469;49.024;8.246;2024-02-28T02:34:46;100597.03;;;5.04;100.00
22605;BME280;11469;49.024;8.246;2024-02-28T02:37:12;100594.41;;;4.98;100.00
22605;BME280;11469;49.024;8.246;2024-02-28T02:39:37;100599.41;;;4.88;100.00
22605;BME280;11469;49.024;8.246;2024-02-28T02:42:02;100594.06;;;5.00;100.00
22605;BME280;11469;49.024;8.246;2024-02-28T02:44:28;100599.91;;;4.90;100.00
22605;BME280;11469;49.024;8.246;2024-02-28T02:46:53;100601.19;;;4.84;100.00
22605;BME280;11469;49.024;8.246;2024-02-28T02:49:19;100605.41;;;4.81;100.00
22605;BME280;11469;49.024;8.246;2024-02-28T02:51:44;100607.00;;;4.74;100.00
22605;BME280;11469;49.024;8.246;2024-02-28T02:54:10;100608.94;;;4.64;100.00
22605;BME280;11469;49.024;8.246;2024-02-28T02:56:36;100615.56;;;4.55;100.00
22605;BME280;11469;49.024;8.246;2024-02-28T02:59:02;100629.69;;;4.45;100.00
22605;BME280;11469;49.024;8.246;2024-02-28T03:01:27;100627.84;;;4.40;100.00
22605;BME280;11469;49.024;8.246;2024-02-28T03:03:52;100624.88;;;4.37;100.00
22605;BME280;11469;49.024;8.246;2024-02-28T03:06:18;100636.50;;;4.39;100.00
22605;BME280;11469;49.024;8.246;2024-02-28T03:08:43;100630.75;;;4.35;100.00
22605;BME280;11469;49.024;8.246;2024-02-28T03:11:09;100632.69;;;4.34;100.00
22605;BME280;11469;49.024;8.246;2024-02-28T03:13:34;100641.53;;;4.37;100.00
22605;BME280;11469;49.024;8.246;2024-02-28T03:16:00;100642.97;;;4.34;100.00
22605;BME280;11469;49.024;8.246;2024-02-28T03:18:25;100641.34;;;4.33;100.00
22605;BME280;11469;49.024;8.246;2024-02-28T03:20:50;100641.16;;;4.29;100.00
22605;BME280;11469;49.024;8.246;2024-02-28T03:23:16;100644.56;;;4.49;100.00
22605;BME280;11469;49.024;8.246;2024-02-28T03:25:41;100645.94;;;4.38;100.00
22605;BME280;11469;49.024;8.246;2024-02-28T03:28:07;100655.41;;;4.37;100.00
22605;BME280;11469;49.024;8.246;2024-02-28T03:30:32;100645.31;;;4.41;100.00
22605;BME280;11469;49.024;8.246;2024-02-28T03:32:58;100651.56;;;4.46;100.00
22605;BME280;11469;49.024;8.246;2024-02-28T03:35:23;100637.31;;;4.61;100.00
22605;BME280;11469;49.024;8.246;2024-02-28T03:37:48;100647.34;;;4.49;100.00
22605;BME280;11469;49.024;8.246;2024-02-28T03:40:14;100659.31;;;4.36;100.00
22605;BME280;11469;49.024;8.246;2024-02-28T03:42:40;100653.22;;;4.25;100.00
22605;BME280;11469;49.024;8.246;2024-02-28T03:45:06;100669.28;;;4.14;100.00
22605;BME280;11469;49.024;8.246;2024-02-28T03:47:31;100665.91;;;3.90;100.00
22605;BME280;11469;49.024;8.246;2024-02-28T03:49:56;100672.19;;;3.82;100.00
22605;BME280;11469;49.024;8.246;2024-02-28T03:52:23;100667.31;;;3.65;100.00
22605;BME280;11469;49.024;8.246;2024-02-28T03:54:49;100666.50;;;3.64;100.00
22605;BME280;11469;49.024;8.246;2024-02-28T03:57:14;100670.69;;;3.62;100.00
22605;BME280;11469;49.024;8.246;2024-02-28T03:59:43;100676.84;;;3.59;100.00
22605;BME280;11469;49.024;8.246;2024-02-28T04:02:09;100680.13;;;3.47;100.00
22605;BME280;11469;49.024;8.246;2024-02-28T04:04:34;100688.53;;;3.42;100.00
22605;BME280;11469;49.024;8.246;2024-02-28T04:07:00;100682.59;;;3.35;100.00
22605;BME280;11469;49.024;8.246;2024-02-28T04:09:25;100687.31;;;3.34;100.00
22605;BME280;11469;49.024;8.246;2024-02-28T04:11:51;100682.06;;;3.33;100.00
22605;BME280;11469;49.024;8.246;2024-02-28T04:14:16;100695.41;;;3.31;100.00
22605;BME280;11469;49.024;8.246;2024-02-28T04:16:42;100705.06;;;3.33;100.00
22605;BME280;11469;49.024;8.246;2024-02-28T04:19:09;100708.88;;;3.24;100.00
22605;BME280;11469;49.024;8.246;2024-02-28T04:21:35;100713.16;;;3.16;100.00
22605;BME280;11469;49.024;8.246;2024-02-28T04:24:00;100711.28;;;3.12;100.00
22605;BME280;11469;49.024;8.246;2024-02-28T04:26:26;100713.13;;;3.03;100.00
22605;BME280;11469;49.024;8.246;2024-02-28T04:28:51;100709.91;;;2.95;100.00
22605;BME280;11469;49.024;8.246;2024-02-28T04:31:16;100712.69;;;2.95;100.00
22605;BME280;11469;49.024;8.246;2024-02-28T04:33:42;100711.72;;;2.86;100.00
22605;BME280;11469;49.024;8.246;2024-02-28T04:36:07;100704.38;;;2.82;100.00
22605;BME280;11469;49.024;8.246;2024-02-28T04:38:33;100706.59;;;2.80;100.00
22605;BME280;11469;49.024;8.246;2024-02-28T04:40:58;100711.09;;;2.76;100.00
22605;BME280;11469;49.024;8.246;2024-02-28T04:43:23;100722.78;;;2.73;100.00
22605;BME280;11469;49.024;8.246;2024-02-28T04:45:49;100720.84;;;2.73;100.00
22605;BME280;11469;49.024;8.246;2024-02-28T04:48:14;100719.72;;;2.74;100.00
22605;BME280;11469;49.024;8.246;2024-02-28T04:50:39;100724.13;;;2.75;100.00
22605;BME280;11469;49.024;8.246;2024-02-28T04:53:05;100730.34;;;2.67;100.00
22605;BME280;11469;49.024;8.246;2024-02-28T04:55:30;100731.47;;;2.66;100.00
22605;BME280;11469;49.024;8.246;2024-02-28T04:57:55;100734.00;;;2.62;100.00
22605;BME280;11469;49.024;8.246;2024-02-28T05:00:21;100734.91;;;2.58;100.00
22605;BME280;11469;49.024;8.246;2024-02-28T05:02:46;100735.50;;;2.55;100.00
22605;BME280;11469;49.024;8.246;2024-02-28T05:05:12;100747.69;;;2.54;100.00
22605;BME280;11469;49.024;8.246;2024-02-28T05:07:37;100758.31;;;2.47;100.00
22605;BME280;11469;49.024;8.246;2024-02-28T05:10:03;100754.44;;;2.48;100.00
22605;BME280;11469;49.024;8.246;2024-02-28T05:12:28;100755.78;;;2.50;100.00
22605;BME280;11469;49.024;8.246;2024-02-28T05:14:53;100761.09;;;2.47;100.00
22605;BME280;11469;49.024;8.246;2024-02-28T05:17:20;100766.75;;;2.37;100.00
22605;BME280;11469;49.024;8.246;2024-02-28T05:19:45;100767.44;;;2.28;100.00
22605;BME280;11469;49.024;8.246;2024-02-28T05:22:11;100770.88;;;2.20;100.00
22605;BME280;11469;49.024;8.246;2024-02-28T05:24:36;100771.22;;;2.14;100.00
22605;BME280;11469;49.024;8.246;2024-02-28T05:27:02;100780.41;;;2.09;100.00
22605;BME280;11469;49.024;8.246;2024-02-28T05:29:27;100779.41;;;2.00;100.00
22605;BME280;11469;49.024;8.246;2024-02-28T05:31:53;100781.13;;;1.96;100.00
22605;BME280;11469;49.024;8.246;2024-02-28T05:34:18;100782.63;;;1.88;100.00
22605;BME280;11469;49.024;8.246;2024-02-28T05:36:43;100775.50;;;1.82;100.00
22605;BME280;11469;49.024;8.246;2024-02-28T05:39:09;100777.22;;;1.78;100.00
22605;BME280;11469;49.024;8.246;2024-02-28T05:41:34;100779.25;;;1.67;100.00
22605;BME280;11469;49.024;8.246;2024-02-28T05:44:00;100777.63;;;1.66;100.00
22605;BME280;11469;49.024;8.246;2024-02-28T05:46:25;100788.38;;;1.68;100.00
22605;BME280;11469;49.024;8.246;2024-02-28T05:48:50;100784.25;;;1.65;100.00
22605;BME280;11469;49.024;8.246;2024-02-28T05:51:16;100786.44;;;1.69;100.00
22605;BME280;11469;49.024;8.246;2024-02-28T05:53:42;100783.09;;;1.72;100.00
22605;BME280;11469;49.024;8.246;2024-02-28T05:56:08;100780.31;;;1.72;100.00
22605;BME280;11469;49.024;8.246;2024-02-28T05:58:43;100792.59;;;1.60;100.00
22605;BME280;11469;49.024;8.246;2024-02-28T06:01:10;100783.25;;;1.56;100.00
22605;BME280;11469;49.024;8.246;2024-02-28T06:03:38;100777.72;;;1.56;100.00
22605;BME280;11469;49.024;8.246;2024-02-28T06:06:04;100783.78;;;1.58;100.00
22605;BME280;11469;49.024;8.246;2024-02-28T06:08:33;100778.78;;;1.60;100.00
22605;BME280;11469;49.024;8.246;2024-02-28T06:10:59;100788.25;;;1.54;100.00
22605;BME280;11469;49.024;8.246;2024-02-28T06:13:25;100786.00;;;1.56;100.00
22605;BME280;11469;49.024;8.246;2024-02-28T06:15:50;100802.94;;;1.50;100.00
22605;BME280;11469;49.024;8.246;2024-02-28T06:18:15;100803.28;;;1.43;100.00
22605;BME280;11469;49.024;8.246;2024-02-28T06:20:41;100807.75;;;1.39;100.00
22605;BME280;11469;49.024;8.246;2024-02-28T06:23:07;100810.81;;;1.38;100.00
22605;BME280;11469;49.024;8.246;2024-02-28T06:25:32;100810.03;;;1.32;100.00
22605;BME280;11469;49.024;8.246;2024-02-28T06:27:59;100808.09;;;1.32;100.00
22605;BME280;11469;49.024;8.246;2024-02-28T06:30:25;100814.84;;;1.45;100.00
22605;BME280;11469;49.024;8.246;2024-02-28T06:32:50;100820.56;;;1.54;100.00
22605;BME280;11469;49.024;8.246;2024-02-28T06:35:17;100818.03;;;1.86;100.00
22605;BME280;11469;49.024;8.246;2024-02-28T06:37:42;100814.59;;;1.94;100.00
22605;BME280;11469;49.024;8.246;2024-02-28T06:40:13;100818.59;;;2.07;100.00
22605;BME280;11469;49.024;8.246;2024-02-28T06:42:38;100816.38;;;2.09;100.00
22605;BME280;11469;49.024;8.246;2024-02-28T06:45:04;100822.41;;;2.11;100.00
22605;BME280;11469;49.024;8.246;2024-02-28T06:47:30;100820.72;;;2.15;100.00
22605;BME280;11469;49.024;8.246;2024-02-28T06:49:57;100830.06;;;2.19;100.00
22605;BME280;11469;49.024;8.246;2024-02-28T06:52:23;100830.84;;;2.25;100.00
22605;BME280;11469;49.024;8.246;2024-02-28T06:54:48;100837.94;;;2.31;100.00
22605;BME280;11469;49.024;8.246;2024-02-28T06:57:13;100845.44;;;2.49;100.00
22605;BME280;11469;49.024;8.246;2024-02-28T06:59:39;100854.84;;;2.48;100.00
22605;BME280;11469;49.024;8.246;2024-02-28T07:02:04;100858.44;;;2.49;100.00
22605;BME280;11469;49.024;8.246;2024-02-28T07:04:30;100853.25;;;2.66;100.00
22605;BME280;11469;49.024;8.246;2024-02-28T07:06:55;100859.53;;;2.72;100.00
22605;BME280;11469;49.024;8.246;2024-02-28T07:09:21;100846.66;;;2.99;100.00
22605;BME280;11469;49.024;8.246;2024-02-28T07:11:46;100861.69;;;3.12;100.00
22605;BME280;11469;49.024;8.246;2024-02-28T07:14:11;100870.00;;;3.12;100.00
22605;BME280;11469;49.024;8.246;2024-02-28T07:16:37;100869.09;;;3.17;100.00
22605;BME280;11469;49.024;8.246;2024-02-28T07:19:02;100871.72;;;3.27;100.00
22605;BME280;11469;49.024;8.246;2024-02-28T07:21:28;100874.69;;;3.30;100.00
22605;BME280;11469;49.024;8.246;2024-02-28T07:23:54;100880.34;;;3.39;100.00
22605;BME280;11469;49.024;8.246;2024-02-28T07:26:20;100887.75;;;3.44;100.00
22605;BME280;11469;49.024;8.246;2024-02-28T07:28:45;100890.22;;;3.45;100.00
22605;BME280;11469;49.024;8.246;2024-02-28T07:31:17;100893.00;;;3.45;100.00
22605;BME280;11469;49.024;8.246;2024-02-28T07:33:43;100898.38;;;3.55;100.00
22605;BME280;11469;49.024;8.246;2024-02-28T07:36:08;100885.34;;;3.56;100.00
22605;BME280;11469;49.024;8.246;2024-02-28T07:38:34;100892.44;;;3.62;100.00
22605;BME280;11469;49.024;8.246;2024-02-28T07:40:59;100901.81;;;3.66;100.00
22605;BME280;11469;49.024;8.246;2024-02-28T07:43:24;100904.56;;;3.66;100.00
22605;BME280;11469;49.024;8.246;2024-02-28T07:45:50;100911.69;;;3.72;100.00
22605;BME280;11469;49.024;8.246;2024-02-28T07:48:15;100911.25;;;3.79;100.00
22605;BME280;11469;49.024;8.246;2024-02-28T07:50:44;100910.06;;;3.85;100.00
22605;BME280;11469;49.024;8.246;2024-02-28T07:53:10;100916.25;;;3.95;100.00
22605;BME280;11469;49.024;8.246;2024-02-28T07:55:35;100913.28;;;4.06;100.00
22605;BME280;11469;49.024;8.246;2024-02-28T07:58:00;100915.44;;;4.09;100.00
22605;BME280;11469;49.024;8.246;2024-02-28T08:00:26;100921.53;;;4.11;100.00
22605;BME280;11469;49.024;8.246;2024-02-28T08:02:51;100912.78;;;4.17;100.00
22605;BME280;11469;49.024;8.246;2024-02-28T08:05:16;100915.06;;;4.15;100.00
22605;BME280;11469;49.024;8.246;2024-02-28T08:07:43;100918.25;;;4.22;100.00
22605;BME280;11469;49.024;8.246;2024-02-28T08:10:09;100916.00;;;4.24;100.00
22605;BME280;11469;49.024;8.246;2024-02-28T08:12:36;100918.13;;;4.27;100.00
22605;BME280;11469;49.024;8.246;2024-02-28T08:15:02;100930.25;;;4.31;100.00
22605;BME280;11469;49.024;8.246;2024-02-28T08:17:27;100924.63;;;4.37;100.00
22605;BME280;11469;49.024;8.246;2024-02-28T08:19:53;100919.38;;;4.49;100.00
22605;BME280;11469;49.024;8.246;2024-02-28T08:22:19;100915.97;;;4.65;100.00
22605;BME280;11469;49.024;8.246;2024-02-28T08:24:45;100912.66;;;4.77;100.00
22605;BME280;11469;49.024;8.246;2024-02-28T08:27:10;100912.94;;;4.89;100.00
22605;BME280;11469;49.024;8.246;2024-02-28T08:29:35;100918.41;;;4.94;100.00
22605;BME280;11469;49.024;8.246;2024-02-28T08:32:03;100916.53;;;5.04;100.00
22605;BME280;11469;49.024;8.246;2024-02-28T08:34:29;100919.91;;;5.14;100.00
22605;BME280;11469;49.024;8.246;2024-02-28T08:36:54;100917.75;;;5.11;100.00
22605;BME280;11469;49.024;8.246;2024-02-28T08:39:19;100924.38;;;5.24;100.00
22605;BME280;11469;49.024;8.246;2024-02-28T08:41:45;100929.63;;;5.25;100.00
22605;BME280;11469;49.024;8.246;2024-02-28T08:44:10;100933.41;;;5.07;100.00
22605;BME280;11469;49.024;8.246;2024-02-28T08:46:36;100929.56;;;5.17;100.00
22605;BME280;11469;49.024;8.246;2024-02-28T08:49:01;100940.28;;;5.10;100.00
22605;BME280;11469;49.024;8.246;2024-02-28T08:51:26;100937.09;;;5.16;100.00
22605;BME280;11469;49.024;8.246;2024-02-28T08:53:52;100937.09;;;5.16;100.00
22605;BME280;11469;49.024;8.246;2024-02-28T08:56:19;100943.59;;;5.34;100.00
22605;BME280;11469;49.024;8.246;2024-02-28T08:58:44;100952.31;;;5.55;100.00
22605;BME280;11469;49.024;8.246;2024-02-28T09:01:13;100949.63;;;6.17;100.00
22605;BME280;11469;49.024;8.246;2024-02-28T09:03:40;100946.31;;;6.06;100.00
22605;BME280;11469;49.024;8.246;2024-02-28T09:06:05;100950.47;;;5.95;100.00
22605;BME280;11469;49.024;8.246;2024-02-28T09:08:30;100944.91;;;5.95;100.00
22605;BME280;11469;49.024;8.246;2024-02-28T09:10:56;100942.97;;;5.95;100.00
22605;BME280;11469;49.024;8.246;2024-02-28T09:13:21;100945.16;;;6.07;100.00
22605;BME280;11469;49.024;8.246;2024-02-28T09:15:46;100947.69;;;5.95;100.00
22605;BME280;11469;49.024;8.246;2024-02-28T09:18:12;100948.91;;;6.03;100.00
22605;BME280;11469;49.024;8.246;2024-02-28T09:20:37;100950.06;;;5.88;100.00
22605;BME280;11469;49.024;8.246;2024-02-28T09:23:03;100948.06;;;5.80;100.00
22605;BME280;11469;49.024;8.246;2024-02-28T09:25:28;100945.56;;;5.92;100.00
22605;BME280;11469;49.024;8.246;2024-02-28T09:27:53;100957.00;;;6.13;100.00
22605;BME280;11469;49.024;8.246;2024-02-28T09:30:19;100958.06;;;6.03;100.00
22605;BME280;11469;49.024;8.246;2024-02-28T09:32:44;100960.44;;;6.18;100.00
22605;BME280;11469;49.024;8.246;2024-02-28T09:35:10;100969.75;;;6.14;100.00
22605;BME280;11469;49.024;8.246;2024-02-28T09:37:36;100961.13;;;6.24;100.00
22605;BME280;11469;49.024;8.246;2024-02-28T09:40:02;100950.94;;;6.50;100.00
22605;BME280;11469;49.024;8.246;2024-02-28T09:42:28;100967.38;;;6.69;100.00
22605;BME280;11469;49.024;8.246;2024-02-28T09:44:54;100969.38;;;6.77;100.00
22605;BME280;11469;49.024;8.246;2024-02-28T09:47:19;100972.16;;;6.77;100.00
22605;BME280;11469;49.024;8.246;2024-02-28T09:49:47;100976.47;;;6.92;100.00
22605;BME280;11469;49.024;8.246;2024-02-28T09:52:14;100973.72;;;7.01;100.00
22605;BME280;11469;49.024;8.246;2024-02-28T09:54:40;100962.91;;;7.16;100.00
22605;BME280;11469;49.024;8.246;2024-02-28T09:57:11;100963.41;;;7.18;100.00
22605;BME280;11469;49.024;8.246;2024-02-28T09:59:37;100957.34;;;7.25;100.00
22605;BME280;11469;49.024;8.246;2024-02-28T10:02:04;100962.97;;;7.42;100.00
22605;BME280;11469;49.024;8.246;2024-02-28T10:04:32;100966.41;;;7.39;100.00
22605;BME280;11469;49.024;8.246;2024-02-28T10:07:10;100967.38;;;7.35;100.00
22605;BME280;11469;49.024;8.246;2024-02-28T10:09:35;100981.13;;;7.22;100.00
22605;BME280;11469;49.024;8.246;2024-02-28T10:12:02;100996.38;;;7.08;100.00
22605;BME280;11469;49.024;8.246;2024-02-28T10:14:28;100995.06;;;7.22;100.00
22605;BME280;11469;49.024;8.246;2024-02-28T10:16:55;101002.78;;;7.25;100.00
22605;BME280;11469;49.024;8.246;2024-02-28T10:19:20;101001.94;;;7.08;100.00
22605;BME280;11469;49.024;8.246;2024-02-28T10:21:46;101006.41;;;7.26;100.00
22605;BME280;11469;49.024;8.246;2024-02-28T10:24:12;100997.56;;;7.41;100.00
22605;BME280;11469;49.024;8.246;2024-02-28T10:26:47;101008.75;;;7.50;100.00
22605;BME280;11469;49.024;8.246;2024-02-28T10:29:25;101001.69;;;7.52;100.00
22605;BME280;11469;49.024;8.246;2024-02-28T10:31:51;101004.63;;;7.39;100.00
22605;BME280;11469;49.024;8.246;2024-02-28T10:34:17;101000.53;;;7.62;100.00
22605;BME280;11469;49.024;8.246;2024-02-28T10:36:44;100996.09;;;7.61;100.00
22605;BME280;11469;49.024;8.246;2024-02-28T10:39:11;101010.88;;;7.70;100.00
22605;BME280;11469;49.024;8.246;2024-02-28T10:41:39;100998.91;;;7.87;100.00
22605;BME280;11469;49.024;8.246;2024-02-28T10:44:05;101005.13;;;7.84;100.00
22605;BME280;11469;49.024;8.246;2024-02-28T10:46:30;100999.72;;;7.87;99.12
22605;BME280;11469;49.024;8.246;2024-02-28T10:48:56;100991.50;;;7.91;98.79
22605;BME280;11469;49.024;8.246;2024-02-28T10:51:26;101005.28;;;7.96;97.62
22605;BME280;11469;49.024;8.246;2024-02-28T10:54:11;101008.91;;;7.79;98.47
22605;BME280;11469;49.024;8.246;2024-02-28T10:56:38;101011.03;;;7.74;99.66
22605;BME280;11469;49.024;8.246;2024-02-28T10:59:06;101011.69;;;7.71;99.41
22605;BME280;11469;49.024;8.246;2024-02-28T11:01:36;101016.13;;;7.72;98.98
22605;BME280;11469;49.024;8.246;2024-02-28T11:04:03;101004.63;;;7.82;98.52
22605;BME280;11469;49.024;8.246;2024-02-28T11:06:28;101018.41;;;8.04;97.66
22605;BME280;11469;49.024;8.246;2024-02-28T11:08:55;101019.22;;;8.05;97.33
22605;BME280;11469;49.024;8.246;2024-02-28T11:11:22;101020.03;;;8.22;97.90
22605;BME280;11469;49.024;8.246;2024-02-28T11:13:55;101027.31;;;7.97;97.16
22605;BME280;11469;49.024;8.246;2024-02-28T11:16:31;101024.66;;;8.01;96.49
22605;BME280;11469;49.024;8.246;2024-02-28T11:18:58;101025.31;;;7.81;97.09
22605;BME280;11469;49.024;8.246;2024-02-28T11:21:27;101042.69;;;8.04;97.13
22605;BME280;11469;49.024;8.246;2024-02-28T11:24:00;101038.75;;;8.30;96.10
22605;BME280;11469;49.024;8.246;2024-02-28T11:26:26;101030.69;;;8.29;96.89
22605;BME280;11469;49.024;8.246;2024-02-28T11:28:54;101024.16;;;8.08;96.18
22605;BME280;11469;49.024;8.246;2024-02-28T11:31:21;101020.53;;;8.33;95.31
22605;BME280;11469;49.024;8.246;2024-02-28T11:33:46;101014.78;;;8.04;94.82
22605;BME280;11469;49.024;8.246;2024-02-28T11:36:12;101017.75;;;8.07;95.66
22605;BME280;11469;49.024;8.246;2024-02-28T11:38:39;101016.56;;;8.25;95.42
22605;BME280;11469;49.024;8.246;2024-02-28T11:41:05;101014.44;;;8.22;95.88
22605;BME280;11469;49.024;8.246;2024-02-28T11:43:34;101012.13;;;8.50;95.65
22605;BME280;11469;49.024;8.246;2024-02-28T11:46:11;101012.25;;;8.54;93.97
22605;BME280;11469;49.024;8.246;2024-02-28T11:48:36;101007.00;;;8.52;93.90
22605;BME280;11469;49.024;8.246;2024-02-28T11:51:02;101010.91;;;8.60;93.37
22605;BME280;11469;49.024;8.246;2024-02-28T11:53:27;100998.09;;;8.59;93.71
22605;BME280;11469;49.024;8.246;2024-02-28T11:55:53;100999.03;;;8.72;94.40
22605;BME280;11469;49.024;8.246;2024-02-28T11:58:21;100990.56;;;8.51;92.46
22605;BME280;11469;49.024;8.246;2024-02-28T12:00:48;101000.19;;;8.71;91.85
22605;BME280;11469;49.024;8.246;2024-02-28T12:03:14;100998.22;;;8.71;91.48
22605;BME280;11469;49.024;8.246;2024-02-28T12:05:42;101008.44;;;8.67;90.76
22605;BME280;11469;49.024;8.246;2024-02-28T12:08:08;101006.78;;;8.66;91.12
22605;BME280;11469;49.024;8.246;2024-02-28T12:10:35;101003.88;;;8.54;91.23
22605;BME280;11469;49.024;8.246;2024-02-28T12:13:00;100997.72;;;8.78;91.85
22605;BME280;11469;49.024;8.246;2024-02-28T12:15:28;100991.00;;;8.99;90.72
22605;BME280;11469;49.024;8.246;2024-02-28T12:17:54;100987.53;;;9.03;88.05
22605;BME280;11469;49.024;8.246;2024-02-28T12:20:20;100985.41;;;8.99;88.59
22605;BME280;11469;49.024;8.246;2024-02-28T12:22:45;100972.88;;;9.06;88.35
22605;BME280;11469;49.024;8.246;2024-02-28T12:25:11;100982.34;;;8.92;88.07
22605;BME280;11469;49.024;8.246;2024-02-28T12:27:36;100973.84;;;8.80;89.57
22605;BME280;11469;49.024;8.246;2024-02-28T12:30:02;100967.91;;;8.90;88.92
22605;BME280;11469;49.024;8.246;2024-02-28T12:32:27;100952.09;;;9.15;87.66
22605;BME280;11469;49.024;8.246;2024-02-28T12:34:53;100951.41;;;8.97;87.46
22605;BME280;11469;49.024;8.246;2024-02-28T12:37:19;100953.47;;;9.09;89.09
22605;BME280;11469;49.024;8.246;2024-02-28T12:39:44;100955.34;;;9.26;87.70
22605;BME280;11469;49.024;8.246;2024-02-28T12:42:11;100961.91;;;9.01;87.01
22605;BME280;11469;49.024;8.246;2024-02-28T12:44:38;100965.94;;;9.12;87.38
22605;BME280;11469;49.024;8.246;2024-02-28T12:47:06;100961.47;;;9.19;86.50